createdAt,value
2024-05-09T00:00:15.679Z,5.1
2024-05-09T00:03:12.171Z,5.2
2024-05-09T00:06:11.806Z,5.1
2024-05-09T00:09:11.745Z,5.2
2024-05-09T00:12:11.831Z,5.6
2024-05-09T00:15:11.747Z,5.4
2024-05-09T00:18:11.889Z,5.5
2024-05-09T00:21:11.764Z,5.5
2024-05-09T00:24:11.759Z,5.7
2024-05-09T00:27:13.197Z,5.9
2024-05-09T00:30:14.647Z,5.6
2024-05-09T00:33:12.047Z,5.7
2024-05-09T00:36:11.767Z,5.4
2024-05-09T00:39:11.768Z,5.8
2024-05-09T00:42:11.786Z,5.5
2024-05-09T00:45:11.757Z,5.3
2024-05-09T00:48:13.375Z,5.4
2024-05-09T00:51:11.808Z,5.7
2024-05-09T00:54:11.771Z,5.5
2024-05-09T00:57:11.795Z,5.7
2024-05-09T01:00:18.424Z,5.5
2024-05-09T01:03:12.805Z,5.7
2024-05-09T01:06:11.814Z,5.8
2024-05-09T01:09:11.812Z,6
2024-05-09T01:12:11.933Z,6.2
2024-05-09T01:15:11.807Z,6.5
2024-05-09T01:18:12.511Z,5.9
2024-05-09T01:21:11.884Z,6
2024-05-09T01:24:11.826Z,6.2
2024-05-09T01:27:11.845Z,6.4
2024-05-09T01:30:16.976Z,6.3
2024-05-09T01:33:12.502Z,5.7
2024-05-09T01:36:11.841Z,6.3
2024-05-09T01:39:11.845Z,6.4
2024-05-09T01:42:11.857Z,6
2024-05-09T01:45:11.851Z,5.9
2024-05-09T01:48:12.074Z,6.5
2024-05-09T01:51:12.000Z,6.4
2024-05-09T01:54:11.866Z,6.2
2024-05-09T01:57:11.857Z,6.3
2024-05-09T02:00:12.997Z,6.1
2024-05-09T02:03:13.776Z,6.2
2024-05-09T02:06:11.949Z,6.3
2024-05-09T02:09:11.902Z,6.7
2024-05-09T02:12:12.039Z,6.5
2024-05-09T02:15:11.887Z,6.6
2024-05-09T02:18:12.159Z,6.8
2024-05-09T02:21:11.931Z,7.3
2024-05-09T02:24:11.917Z,7.6
2024-05-09T02:27:11.918Z,7.2
2024-05-09T02:30:18.235Z,7.1
2024-05-09T02:33:13.175Z,7.3
2024-05-09T02:36:11.915Z,7.6
2024-05-09T02:39:11.923Z,7.7
2024-05-09T02:42:11.945Z,7.2
2024-05-09T02:45:11.927Z,7.3
2024-05-09T02:48:12.652Z,7.3
2024-05-09T02:51:11.978Z,7.9
2024-05-09T02:54:11.948Z,7.8
2024-05-09T02:57:11.966Z,7.8
2024-05-09T03:00:15.144Z,7.8
2024-05-09T03:03:13.188Z,7.4
2024-05-09T03:06:11.957Z,7.4
2024-05-09T03:09:11.966Z,7.3
2024-05-09T03:12:12.139Z,7.3
2024-05-09T03:15:11.969Z,7.7
2024-05-09T03:18:12.582Z,7.1
2024-05-09T03:21:11.981Z,7.2
2024-05-09T03:24:12.007Z,7
2024-05-09T03:27:11.993Z,7.1
2024-05-09T03:33:13.040Z,6.4
2024-05-09T03:36:12.077Z,6.3
2024-05-09T03:39:12.107Z,6.7
2024-05-09T03:42:12.155Z,6.3
2024-05-09T03:45:12.025Z,7
2024-05-09T03:48:12.289Z,6.8
2024-05-09T03:51:12.332Z,7.6
2024-05-09T03:54:12.045Z,7.5
2024-05-09T03:57:12.051Z,7.5
2024-05-09T04:00:17.563Z,7.6
2024-05-09T04:03:12.821Z,7.6
2024-05-09T04:06:12.063Z,7.5
2024-05-09T04:09:12.088Z,7.7
2024-05-09T04:12:12.220Z,7.1
2024-05-09T04:15:13.213Z,6.8
2024-05-09T04:18:12.119Z,7
2024-05-09T04:21:12.104Z,7
2024-05-09T04:24:12.122Z,6.5
2024-05-09T04:27:12.103Z,6.9
2024-05-09T04:30:15.591Z,6.6
2024-05-09T04:33:13.219Z,6.5
2024-05-09T04:36:12.121Z,6.5
2024-05-09T04:39:12.127Z,6.3
2024-05-09T04:42:12.137Z,6.3
2024-05-09T04:45:12.133Z,6.3
2024-05-09T04:48:12.341Z,6.1
2024-05-09T04:51:12.170Z,6.1
2024-05-09T04:54:22.067Z,6.5
2024-05-09T04:57:12.154Z,6.5
2024-05-09T05:00:14.543Z,6.4
2024-05-09T05:03:13.151Z,5.7
2024-05-09T05:06:12.166Z,6
2024-05-09T05:09:12.187Z,5.7
2024-05-09T05:12:12.327Z,5.7
2024-05-09T05:15:12.175Z,5.5
2024-05-09T05:18:12.220Z,5.8
2024-05-09T05:21:12.220Z,5.4
2024-05-09T05:24:12.198Z,5
2024-05-09T05:27:12.214Z,5
2024-05-09T05:30:17.835Z,4.8
2024-05-09T05:33:12.388Z,4.9
2024-05-09T05:36:12.192Z,4.7
2024-05-09T05:39:12.216Z,4.5
2024-05-09T05:42:12.220Z,4
2024-05-09T05:45:12.225Z,4.1
2024-05-09T05:48:12.322Z,3.6
2024-05-09T05:51:12.327Z,3.6
2024-05-09T05:54:12.236Z,3.3
2024-05-09T05:57:12.251Z,3.4
2024-05-09T06:00:15.227Z,3.3
2024-05-09T06:03:12.599Z,3.3
2024-05-09T06:06:12.294Z,3.1
2024-05-09T06:09:12.232Z,3
2024-05-09T06:12:12.341Z,3.1
2024-05-09T06:15:12.259Z,3.2
2024-05-09T06:18:12.639Z,3.1
2024-05-09T06:21:12.328Z,2.9
2024-05-09T06:24:12.254Z,2.9
2024-05-09T06:27:12.304Z,3
2024-05-09T06:30:20.601Z,2.9
2024-05-09T06:33:13.225Z,2.8
2024-05-09T06:36:12.288Z,3
2024-05-09T06:39:12.306Z,2.8
2024-05-09T06:42:12.304Z,2.9
2024-05-09T06:45:12.294Z,3
2024-05-09T06:48:12.512Z,2.9
2024-05-09T06:51:12.416Z,2.7
2024-05-09T06:54:12.335Z,2.6
2024-05-09T06:57:12.336Z,2.8
2024-05-09T07:00:15.596Z,3
2024-05-09T07:03:13.373Z,2.6
2024-05-09T07:06:12.473Z,2.9
2024-05-09T07:09:12.363Z,2.7
2024-05-09T07:12:12.435Z,2.7
2024-05-09T07:15:12.375Z,2.5
2024-05-09T07:18:12.829Z,2.8
2024-05-09T07:21:12.456Z,2.8
2024-05-09T07:24:12.404Z,2.6
2024-05-09T07:27:12.432Z,2.8
2024-05-09T07:30:16.474Z,2.8
2024-05-09T07:33:12.528Z,2.7
2024-05-09T07:36:12.436Z,2.9
2024-05-09T07:39:12.417Z,2.6
2024-05-09T07:42:12.434Z,2.9
2024-05-09T07:45:21.188Z,2.5
2024-05-09T07:48:57.256Z,2.7
2024-05-09T07:54:12.560Z,2.6
2024-05-09T07:57:12.456Z,2.6
2024-05-09T08:00:14.528Z,2.6
2024-05-09T08:03:12.491Z,2.6
2024-05-09T08:06:12.454Z,2.5
2024-05-09T08:09:13.814Z,2.6
2024-05-09T08:12:12.595Z,2.3
2024-05-09T08:15:12.447Z,2.3
2024-05-09T08:18:12.595Z,2.4
2024-05-09T08:21:12.458Z,2.3
2024-05-09T08:24:12.442Z,2.4
2024-05-09T08:27:12.455Z,2.1
2024-05-09T08:30:18.549Z,2.1
2024-05-09T08:33:12.504Z,2.1
2024-05-09T08:36:12.468Z,2.3
2024-05-09T08:39:12.445Z,2.1
2024-05-09T08:42:12.469Z,2.2
2024-05-09T08:45:12.455Z,2
2024-05-09T08:48:12.585Z,2.2
2024-05-09T08:51:12.460Z,2.2
2024-05-09T08:54:12.464Z,2.1
2024-05-09T08:57:12.462Z,2
2024-05-09T09:00:14.981Z,2
2024-05-09T09:03:12.506Z,2
2024-05-09T09:06:12.552Z,2
2024-05-09T09:09:12.480Z,2.1
2024-05-09T09:12:12.474Z,2.1
2024-05-09T09:15:12.471Z,2
2024-05-09T09:18:12.603Z,2
2024-05-09T09:21:12.475Z,2
2024-05-09T09:24:12.470Z,2.1
2024-05-09T09:27:12.493Z,2.2
2024-05-09T09:30:22.574Z,2.3
2024-05-09T09:33:12.658Z,2.2
2024-05-09T09:36:12.522Z,2
2024-05-09T09:39:12.489Z,2.1
2024-05-09T09:42:12.502Z,2.3
2024-05-09T09:45:12.495Z,2.1
2024-05-09T09:48:12.638Z,2.2
2024-05-09T09:51:12.497Z,2.1
2024-05-09T09:54:12.498Z,2.2
2024-05-09T09:57:12.510Z,2.2
2024-05-09T10:00:17.244Z,2.1
2024-05-09T10:03:12.546Z,2.3
2024-05-09T10:06:12.505Z,2
2024-05-09T10:09:12.509Z,2.1
2024-05-09T10:12:12.544Z,2
2024-05-09T10:15:12.496Z,2
2024-05-09T10:18:12.736Z,2
2024-05-09T10:21:12.513Z,2
2024-05-09T10:24:12.527Z,2
2024-05-09T10:27:12.516Z,2.1
2024-05-09T10:30:14.780Z,2.2
2024-05-09T10:33:12.557Z,2.2
2024-05-09T10:36:12.518Z,2.1
2024-05-09T10:39:12.509Z,2
2024-05-09T10:42:12.533Z,2.1
2024-05-09T10:45:12.536Z,2
2024-05-09T10:48:12.575Z,2
2024-05-09T10:51:12.548Z,2.1
2024-05-09T10:54:12.516Z,2
2024-05-09T10:57:12.540Z,2
2024-05-09T11:00:15.767Z,2.2
2024-05-09T11:03:12.570Z,2
2024-05-09T11:06:12.526Z,1.9
2024-05-09T11:09:12.541Z,1.8
2024-05-09T11:12:12.647Z,2
2024-05-09T11:15:12.525Z,2
2024-05-09T11:18:12.568Z,2.1
2024-05-09T11:21:13.112Z,2
2024-05-09T11:24:12.541Z,2.1
2024-05-09T11:27:12.561Z,2.2
2024-05-09T11:30:17.303Z,2
2024-05-09T11:33:12.555Z,2
2024-05-09T11:36:12.632Z,1.9
2024-05-09T11:39:12.543Z,1.9
2024-05-09T11:42:12.551Z,1.9
2024-05-09T11:45:12.565Z,2.1
2024-05-09T11:48:12.618Z,2
2024-05-09T11:51:12.552Z,1.9
2024-05-09T11:54:12.555Z,2
2024-05-09T11:57:12.555Z,2.5
2024-05-09T12:00:18.028Z,1.9
2024-05-09T12:03:12.617Z,2.1
2024-05-09T12:06:12.580Z,2.1
2024-05-09T12:09:12.543Z,1.9
2024-05-09T12:12:12.556Z,2
2024-05-09T12:15:12.573Z,1.8
2024-05-09T12:18:12.579Z,1.9
2024-05-09T12:21:12.572Z,2.1
2024-05-09T12:24:14.472Z,1.9
2024-05-09T12:27:12.582Z,1.8
2024-05-09T12:30:17.193Z,1.8
2024-05-09T12:33:13.104Z,2
2024-05-09T12:36:12.559Z,2
2024-05-09T12:39:12.581Z,1.9
2024-05-09T12:42:14.632Z,2
2024-05-09T12:45:12.577Z,1.9
2024-05-09T12:48:13.094Z,2
2024-05-09T12:51:12.576Z,2
2024-05-09T12:54:12.595Z,1.9
2024-05-09T12:57:12.593Z,1.8
2024-05-09T13:00:20.494Z,2
2024-05-09T13:03:12.841Z,1.8
2024-05-09T13:06:12.586Z,1.7
2024-05-09T13:09:12.582Z,1.9
2024-05-09T13:12:12.623Z,1.7
2024-05-09T13:15:12.586Z,1.9
2024-05-09T13:18:12.600Z,1.7
2024-05-09T13:21:12.583Z,1.7
2024-05-09T13:24:12.586Z,1.9
2024-05-09T13:27:12.616Z,1.6
2024-05-09T13:30:17.605Z,1.5
2024-05-09T13:33:13.241Z,1.8
2024-05-09T13:36:12.584Z,1.7
2024-05-09T13:39:12.615Z,1.7
2024-05-09T13:42:12.627Z,1.7
2024-05-09T13:45:12.634Z,1.9
2024-05-09T13:48:12.852Z,1.8
2024-05-09T13:51:12.621Z,1.7
2024-05-09T13:54:12.613Z,1.7
2024-05-09T13:57:12.611Z,1.8
2024-05-09T14:00:22.292Z,1.8
2024-05-09T14:03:12.740Z,1.7
2024-05-09T14:06:13.135Z,1.7
2024-05-09T14:09:12.614Z,1.8
2024-05-09T14:12:12.686Z,1.8
2024-05-09T14:15:12.620Z,1.7
2024-05-09T14:18:13.749Z,2
2024-05-09T14:21:12.641Z,1.9
2024-05-09T14:24:12.622Z,1.7
2024-05-09T14:27:12.664Z,1.9
2024-05-09T14:30:18.047Z,1.6
2024-05-09T14:33:12.697Z,1.7
2024-05-09T14:36:12.634Z,1.8
2024-05-09T14:39:12.653Z,1.7
2024-05-09T14:42:12.656Z,1.8
2024-05-09T14:45:12.660Z,1.8
2024-05-09T14:48:12.726Z,1.8
2024-05-09T14:51:12.664Z,1.7
2024-05-09T14:54:12.657Z,1.7
2024-05-09T14:57:12.663Z,1.8
2024-05-09T15:00:17.277Z,1.5
2024-05-09T15:03:12.716Z,1.5
2024-05-09T15:06:12.751Z,1.7
2024-05-09T15:09:12.684Z,1.7
2024-05-09T15:12:12.686Z,1.6
2024-05-09T15:15:12.682Z,1.6
2024-05-09T15:18:12.725Z,1.7
2024-05-09T15:21:12.679Z,1.7
2024-05-09T15:24:12.690Z,1.7
2024-05-09T15:27:12.706Z,1.8
2024-05-09T15:30:13.155Z,2.1
2024-05-09T15:33:12.739Z,1.6
2024-05-09T15:36:12.694Z,1.6
2024-05-09T15:39:12.705Z,1.7
2024-05-09T15:42:12.712Z,1.7
2024-05-09T15:45:12.704Z,1.8
2024-05-09T15:48:12.801Z,2.1
2024-05-09T15:51:12.700Z,1.9
2024-05-09T15:54:12.693Z,1.8
2024-05-09T15:57:12.728Z,1.7
2024-05-09T16:00:18.252Z,1.6
2024-05-09T16:03:13.516Z,1.7
2024-05-09T16:06:12.736Z,1.5
2024-05-09T16:09:12.726Z,1.5
2024-05-09T16:12:12.728Z,1.7
2024-05-09T16:15:12.755Z,1.5
2024-05-09T16:18:12.952Z,1.7
2024-05-09T16:21:12.737Z,1.6
2024-05-09T16:24:12.732Z,1.6
2024-05-09T16:27:12.753Z,2
2024-05-09T16:30:18.165Z,1.7
2024-05-09T16:33:12.894Z,2
2024-05-09T16:36:12.730Z,1.7
2024-05-09T16:39:12.762Z,1.8
2024-05-09T16:42:12.742Z,1.9
2024-05-09T16:45:12.741Z,1.7
2024-05-09T16:48:12.815Z,1.9
2024-05-09T16:51:12.754Z,1.9
2024-05-09T16:54:12.764Z,1.8
2024-05-09T16:57:12.785Z,2.2
2024-05-09T17:00:17.792Z,3.3
2024-05-09T17:03:13.719Z,1.6
2024-05-09T17:06:12.787Z,1.6
2024-05-09T17:09:15.552Z,1.5
2024-05-09T17:12:12.795Z,1.6
2024-05-09T17:15:12.772Z,1.8
2024-05-09T17:18:12.797Z,2.1
2024-05-09T17:21:12.795Z,1.9
2024-05-09T17:24:12.790Z,2.1
2024-05-09T17:27:12.790Z,2
2024-05-09T17:30:15.554Z,2
2024-05-09T17:33:13.273Z,1.9
2024-05-09T17:36:12.820Z,2
2024-05-09T17:39:12.809Z,1.8
2024-05-09T17:42:12.803Z,1.8
2024-05-09T17:45:12.809Z,1.8
2024-05-09T17:48:13.043Z,1.9
2024-05-09T17:51:12.833Z,1.8
2024-05-09T17:54:12.823Z,1.9
2024-05-09T17:57:12.952Z,1.9
2024-05-09T18:00:14.905Z,1.9
2024-05-09T18:03:13.312Z,2.2
2024-05-09T18:06:12.822Z,2.2
2024-05-09T18:09:12.853Z,2.4
2024-05-09T18:12:12.866Z,2.1
2024-05-09T18:15:12.847Z,2.2
2024-05-09T18:18:13.039Z,1.9
2024-05-09T18:21:12.845Z,2
2024-05-09T18:24:12.847Z,2.1
2024-05-09T18:27:12.950Z,2
2024-05-09T18:30:20.899Z,2
2024-05-09T18:33:13.339Z,2
2024-05-09T18:36:12.854Z,2.2
2024-05-09T18:39:12.866Z,2.2
2024-05-09T18:42:12.872Z,2
2024-05-09T18:45:12.884Z,2.2
2024-05-09T18:48:12.911Z,2.2
2024-05-09T18:51:12.883Z,2.2
2024-05-09T18:54:12.886Z,2.3
2024-05-09T18:57:12.873Z,2.4
2024-05-09T19:00:19.232Z,2.3
2024-05-09T19:03:13.674Z,2.6
2024-05-09T19:06:12.881Z,2.7
2024-05-09T19:09:12.873Z,2.5
2024-05-09T19:12:12.904Z,2.7
2024-05-09T19:15:12.899Z,2.7
2024-05-09T19:18:13.503Z,2.3
2024-05-09T19:21:12.903Z,2.5
2024-05-09T19:24:12.902Z,2.7
2024-05-09T19:27:12.909Z,2.5
2024-05-09T19:30:17.299Z,2.5
2024-05-09T19:33:13.676Z,2.6
2024-05-09T19:36:12.919Z,2.6
2024-05-09T19:39:12.907Z,2.6
2024-05-09T19:42:12.922Z,2.4
2024-05-09T19:45:12.920Z,2.5
2024-05-09T19:48:13.027Z,2.4
2024-05-09T19:51:12.936Z,2.6
2024-05-09T19:54:12.933Z,2.7
2024-05-09T19:57:12.949Z,2.5
2024-05-09T20:00:17.810Z,2.4
2024-05-09T20:03:13.214Z,2.4
2024-05-09T20:06:12.959Z,2.6
2024-05-09T20:09:12.960Z,2.4
2024-05-09T20:12:12.958Z,2.5
2024-05-09T20:15:12.952Z,2.3
2024-05-09T20:18:13.308Z,2.5
2024-05-09T20:21:12.981Z,2.2
2024-05-09T20:24:12.982Z,2.4
2024-05-09T20:27:13.000Z,3
2024-05-09T20:30:16.972Z,2.4
2024-05-09T20:33:13.064Z,2.6
2024-05-09T20:36:12.994Z,2.5
2024-05-09T20:39:12.992Z,2.5
2024-05-09T20:42:13.136Z,2.8
2024-05-09T20:45:13.014Z,2.8
2024-05-09T20:48:13.097Z,2.7
2024-05-09T20:51:13.010Z,2.8
2024-05-09T20:54:13.030Z,2.6
2024-05-09T20:57:13.026Z,2.6
2024-05-09T21:00:18.177Z,2.5
2024-05-09T21:03:13.574Z,2.8
2024-05-09T21:06:13.061Z,2.5
2024-05-09T21:09:13.056Z,2.6
2024-05-09T21:12:13.061Z,2.5
2024-05-09T21:15:13.063Z,2.8
2024-05-09T21:18:13.112Z,2.7
2024-05-09T21:21:13.090Z,2.5
2024-05-09T21:24:13.092Z,2.5
2024-05-09T21:27:13.174Z,2.6
2024-05-09T21:30:16.131Z,2.7
2024-05-09T21:33:14.056Z,2.7
2024-05-09T21:36:13.129Z,2.6
2024-05-09T21:39:13.128Z,2.8
2024-05-09T21:42:13.140Z,2.9
2024-05-09T21:45:13.144Z,2.7
2024-05-09T21:48:13.279Z,2.7
2024-05-09T21:51:13.174Z,2.9
2024-05-09T21:54:13.179Z,3
2024-05-09T21:57:13.186Z,3.2
2024-05-09T22:00:17.452Z,3.1
2024-05-09T22:03:13.312Z,3.1
2024-05-09T22:06:13.205Z,3.4
2024-05-09T22:09:13.214Z,3.6
2024-05-09T22:12:13.226Z,3.9
2024-05-09T22:15:13.233Z,4
2024-05-09T22:18:13.373Z,3.9
2024-05-09T22:21:13.254Z,3.8
2024-05-09T22:24:13.247Z,3.9
2024-05-09T22:27:13.247Z,4
2024-05-09T22:30:17.665Z,4.4
2024-05-09T22:33:13.460Z,3.8
2024-05-09T22:36:13.260Z,3.8
2024-05-09T22:39:13.291Z,4.1
2024-05-09T22:42:13.286Z,4.1
2024-05-09T22:45:13.280Z,3.7
2024-05-09T22:48:13.383Z,3.9
2024-05-09T22:51:13.281Z,4.4
2024-05-09T22:54:13.284Z,4
2024-05-09T22:57:13.289Z,4.3
2024-05-09T23:00:15.811Z,4
2024-05-09T23:03:13.298Z,3.9
2024-05-09T23:06:13.293Z,3.8
2024-05-09T23:09:13.289Z,4.1
2024-05-09T23:12:13.297Z,4.3
2024-05-09T23:15:13.350Z,4.4
2024-05-09T23:18:13.425Z,4.7
2024-05-09T23:21:13.309Z,4.4
2024-05-09T23:24:13.296Z,4.3
2024-05-09T23:27:13.294Z,4.8
2024-05-09T23:30:18.283Z,4.9
2024-05-09T23:33:13.982Z,4.8
2024-05-09T23:36:13.329Z,4.8
2024-05-09T23:39:13.332Z,5.3
2024-05-09T23:42:13.327Z,5.2
2024-05-09T23:45:13.323Z,5.3
2024-05-09T23:48:13.431Z,5.1
2024-05-09T23:51:13.307Z,4.8
2024-05-09T23:54:13.322Z,4.7
2024-05-09T23:57:13.326Z,5.1
